Time;durP1;ratioP1;P1;durP2;ratioP2;P2;SDS_P1;SDS_P2;PMS_P1;PMS_P2;Temp;Humidity;BMP_temperature;BMP_pressure;BME280_temperature;BME280_humidity;BME280_pressure;Samples;Min_cycle;Max_cycle;Signal;HPM_P1;HPM_P2
2022/06/03 00:04:22;;;;;;;3.2;8.2;;;;;;;-133;89.4;65260;;;;
2022/06/03 00:15:22;;;;;;;4.5;6.3;;;;;;;-133;88.4;65250;;;;
2022/06/03 00:26:22;;;;;;;4.5;6.3;;;;;;;-133;89.2;65260;;;;
2022/06/03 00:36:22;;;;;;;5;8.8;;;;;;;-133;91.8;65260;;;;
2022/06/03 00:46:22;;;;;;;5;8.8;;;;;;;-133;93.1;65250;;;;
2022/06/03 00:56:22;;;;;;;5;8.8;;;;;;;-133;92.7;65260;;;;
2022/06/03 01:06:22;;;;;;;5.1;8.6;;;;;;;-133;92.2;65260;;;;
2022/06/03 01:17:22;;;;;;;5.1;8.6;;;;;;;-133;92.5;65260;;;;
2022/06/03 01:27:22;;;;;;;5.1;8.6;;;;;;;-133;93.2;65260;;;;
2022/06/03 01:38:22;;;;;;;3.9;6;;;;;;;-133;95.4;65260;;;;
2022/06/03 01:49:22;;;;;;;3.9;6;;;;;;;-133;93.1;65260;;;;
2022/06/03 02:00:22;;;;;;;3.9;6;;;;;;;-133;93.5;65260;;;;
2022/06/03 02:11:22;;;;;;;5.1;10;;;;;;;-133;97.1;65260;;;;
2022/06/03 02:21:22;;;;;;;5.1;10;;;;;;;-133;96;65260;;;;
2022/06/03 02:31:23;;;;;;;5.1;10;;;;;;;-133;96.5;65260;;;;
2022/06/03 02:41:22;;;;;;;5;10;;;;;;;-133;96;65260;;;;
2022/06/03 02:52:22;;;;;;;5;10;;;;;;;-133;97.8;65260;;;;
2022/06/03 03:02:23;;;;;;;5;10;;;;;;;-133;96.6;65260;;;;
2022/06/03 03:12:22;;;;;;;4.3;6.7;;;;;;;-133;96.7;65260;;;;
2022/06/03 03:22:22;;;;;;;4.3;6.7;;;;;;;-133;98.3;65260;;;;
2022/06/03 03:32:22;;;;;;;4.3;6.7;;;;;;;-133;97.3;65260;;;;
2022/06/03 03:43:22;;;;;;;4.5;9.5;;;;;;;-133;97.9;65260;;;;
2022/06/03 03:53:29;;;;;;;4.5;9.5;;;;;;;-133;97.7;65260;;;;
2022/06/03 04:04:22;;;;;;;4.5;9.5;;;;;;;-133;96.9;65260;;;;
2022/06/03 04:14:22;;;;;;;5.6;10.9;;;;;;;-133;96.2;65260;;;;
2022/06/03 04:25:22;;;;;;;5.6;10.9;;;;;;;-133;95.4;65260;;;;
2022/06/03 04:35:22;;;;;;;6.5;9.6;;;;;;;-133;94.1;65260;;;;
2022/06/03 04:45:22;;;;;;;6.5;9.6;;;;;;;-133;92.4;65250;;;;
2022/06/03 04:56:22;;;;;;;6.5;9.6;;;;;;;-133;90.4;65260;;;;
2022/06/03 05:07:22;;;;;;;5.3;7.8;;;;;;;-133;88.7;65250;;;;
2022/06/03 05:18:22;;;;;;;5.3;7.8;;;;;;;-133;87.2;65250;;;;
2022/06/03 05:29:22;;;;;;;5.3;7.8;;;;;;;-133;85.5;65250;;;;
2022/06/03 05:40:22;;;;;;;7.1;10.5;;;;;;;-133;81.8;65240;;;;
2022/06/03 05:51:22;;;;;;;7.1;10.5;;;;;;;-133;80.1;65240;;;;
2022/06/03 06:01:22;;;;;;;7.1;10.5;;;;;;;-133;75.9;65240;;;;
2022/06/03 06:12:22;;;;;;;5.4;7.7;;;;;;;-133;73.3;65240;;;;
2022/06/03 06:23:22;;;;;;;5.4;7.7;;;;;;;-133;70.3;65230;;;;
2022/06/03 06:33:22;;;;;;;5.4;7.7;;;;;;;-133;68.9;65230;;;;
2022/06/03 06:44:22;;;;;;;4.1;7.7;;;;;;;-133;64.3;65230;;;;
2022/06/03 06:55:22;;;;;;;4.1;7.7;;;;;;;-133;59.8;65230;;;;
2022/06/03 07:06:22;;;;;;;2.1;4.5;;;;;;;-133;59;65230;;;;
2022/06/03 07:27:22;;;;;;;2.1;4.5;;;;;;;-133;55;65220;;;;
2022/06/03 07:38:23;;;;;;;2.7;5;;;;;;;-133;57;65220;;;;
2022/06/03 07:49:22;;;;;;;2.7;5;;;;;;;-133;55.4;65220;;;;
2022/06/03 08:00:22;;;;;;;2.7;5;;;;;;;-133;56.8;65220;;;;
2022/06/03 08:11:26;;;;;;;2.6;4.1;;;;;;;-133;55.5;65220;;;;
2022/06/03 08:20:22;;;;;;;2.6;4.1;;;;;;;-133;53.7;65220;;;;
2022/06/03 08:30:22;;;;;;;2.6;4.1;;;;;;;-133;52;65220;;;;
2022/06/03 08:40:22;;;;;;;2.5;4.9;;;;;;;-133;49.7;65220;;;;
2022/06/03 08:51:22;;;;;;;2.5;4.9;;;;;;;-133;50.6;65220;;;;
2022/06/03 09:01:22;;;;;;;2.5;4.9;;;;;;;-133;49.7;65220;;;;
2022/06/03 09:11:24;;;;;;;2.5;5.7;;;;;;;-133;47.5;65220;;;;
2022/06/03 09:22:22;;;;;;;2.5;5.7;;;;;;;-133;46.5;65220;;;;
2022/06/03 09:32:22;;;;;;;2.5;5.7;;;;;;;-133;45.2;65220;;;;
2022/06/03 09:42:22;;;;;;;2.5;4.3;;;;;;;-133;45.5;65220;;;;
2022/06/03 09:53:23;;;;;;;2.5;4.3;;;;;;;-133;45.4;65220;;;;
2022/06/03 10:03:22;;;;;;;2.5;4.3;;;;;;;-133;44.5;65220;;;;
2022/06/03 10:14:22;;;;;;;2.3;4.2;;;;;;;-133;44;65220;;;;
2022/06/03 10:25:24;;;;;;;2.3;4.2;;;;;;;-133;44;65220;;;;
2022/06/03 10:35:27;;;;;;;2.2;4.9;;;;;;;-133;43.5;65220;;;;
2022/06/03 10:45:22;;;;;;;2.2;4.9;;;;;;;-133;43.1;65220;;;;
2022/06/03 11:06:22;;;;;;;2.2;4.5;;;;;;;-133;42.8;65220;;;;
2022/06/03 11:17:22;;;;;;;2.2;4.5;;;;;;;-133;42.5;65220;;;;
2022/06/03 11:28:22;;;;;;;2.2;4.5;;;;;;;-133;44.8;65220;;;;
2022/06/03 11:38:22;;;;;;;2.4;3.9;;;;;;;-133;43.9;65220;;;;
2022/06/03 11:48:22;;;;;;;2.4;3.9;;;;;;;-133;42.5;65220;;;;
2022/06/03 11:59:22;;;;;;;2.4;3.9;;;;;;;-133;40.3;65220;;;;
2022/06/03 12:09:23;;;;;;;3.1;5.7;;;;;;;-133;42.6;65220;;;;
2022/06/03 12:20:22;;;;;;;3.1;5.7;;;;;;;-133;41.3;65220;;;;
2022/06/03 12:31:22;;;;;;;3.1;5.7;;;;;;;-133;42;65220;;;;
2022/06/03 12:42:23;;;;;;;2.1;3.8;;;;;;;-133;41.5;65220;;;;
2022/06/03 12:53:22;;;;;;;2.1;3.8;;;;;;;-133;40.7;65220;;;;
2022/06/03 13:04:22;;;;;;;2.1;3.8;;;;;;;-133;39.5;65230;;;;
2022/06/03 13:15:22;;;;;;;2.1;4.7;;;;;;;-133;39.6;65220;;;;
2022/06/03 13:25:22;;;;;;;2.1;4.7;;;;;;;-133;37.2;65220;;;;
2022/06/03 13:36:22;;;;;;;1.9;3.5;;;;;;;-133;39.2;65220;;;;
2022/06/03 13:46:22;;;;;;;1.9;3.5;;;;;;;-133;37.7;65220;;;;
2022/06/03 13:57:22;;;;;;;1.9;3.5;;;;;;;-133;38.9;65220;;;;
2022/06/03 14:07:23;;;;;;;2.1;4.1;;;;;;;-133;37.3;65220;;;;
2022/06/03 14:18:22;;;;;;;2.1;4.1;;;;;;;-133;38.6;65230;;;;
2022/06/03 14:29:22;;;;;;;2.1;4.1;;;;;;;-133;36.2;65230;;;;
2022/06/03 14:40:22;;;;;;;2.8;5.3;;;;;;;-133;37.9;65220;;;;
2022/06/03 14:50:22;;;;;;;2.8;5.3;;;;;;;-133;36.6;65230;;;;
2022/06/03 15:00:22;;;;;;;2.8;5.3;;;;;;;-133;34;65230;;;;
2022/06/03 15:11:22;;;;;;;2.3;5.6;;;;;;;-133;32.4;65230;;;;
2022/06/03 15:22:22;;;;;;;2.3;5.6;;;;;;;-133;27.5;65220;;;;
2022/06/03 15:32:22;;;;;;;2.3;5.6;;;;;;;-133;27.5;65220;;;;
2022/06/03 15:43:22;;;;;;;2.1;4.4;;;;;;;-133;25.5;65220;;;;
2022/06/03 15:54:22;;;;;;;2.1;4.4;;;;;;;-133;25.6;65230;;;;
2022/06/03 16:05:22;;;;;;;1.9;4.1;;;;;;;-133;25.1;65220;;;;
2022/06/03 16:16:22;;;;;;;1.9;4.1;;;;;;;-133;23.7;65230;;;;
2022/06/03 16:27:22;;;;;;;1.9;4.1;;;;;;;-133;24.9;65230;;;;
2022/06/03 16:37:22;;;;;;;2.1;4.2;;;;;;;-133;27.1;65230;;;;
2022/06/03 16:47:22;;;;;;;2.1;4.2;;;;;;;-133;28.8;65230;;;;
2022/06/03 16:57:22;;;;;;;2.1;4.2;;;;;;;-133;31.3;65240;;;;
2022/06/03 17:07:22;;;;;;;1.8;4.3;;;;;;;-133;32.8;65240;;;;
2022/06/03 17:18:22;;;;;;;1.8;4.3;;;;;;;-133;34.2;65240;;;;
2022/06/03 17:28:23;;;;;;;1.8;4.3;;;;;;;-133;35.8;65240;;;;
2022/06/03 17:39:22;;;;;;;1.7;4.1;;;;;;;-133;35.3;65240;;;;
2022/06/03 17:50:22;;;;;;;1.7;4.1;;;;;;;-133;36.3;65240;;;;
2022/06/03 18:00:22;;;;;;;1.7;4.1;;;;;;;-133;39.1;65250;;;;
2022/06/03 18:11:22;;;;;;;1.7;4.2;;;;;;;-133;41.5;65250;;;;
2022/06/03 18:22:22;;;;;;;1.7;4.2;;;;;;;-133;43.7;65250;;;;
2022/06/03 18:32:23;;;;;;;1.7;4.2;;;;;;;-133;45.5;65250;;;;
2022/06/03 18:43:22;;;;;;;2.2;5;;;;;;;-133;46.8;65250;;;;
2022/06/03 18:53:24;;;;;;;2.2;5;;;;;;;-133;48.5;65250;;;;
2022/06/03 19:04:23;;;;;;;2.2;5;;;;;;;-133;51.2;65250;;;;
2022/06/03 19:15:22;;;;;;;3.7;6.7;;;;;;;-133;52.2;65260;;;;
2022/06/03 19:26:22;;;;;;;3.7;6.7;;;;;;;-133;51;65260;;;;
2022/06/03 19:37:23;;;;;;;3.2;7.3;;;;;;;-133;52.1;65260;;;;
2022/06/03 19:48:22;;;;;;;3.2;7.3;;;;;;;-133;52.5;65260;;;;
2022/06/03 19:59:23;;;;;;;3.2;7.3;;;;;;;-133;55;65260;;;;
2022/06/03 20:10:22;;;;;;;4.9;8.1;;;;;;;-133;58;65260;;;;
2022/06/03 20:20:22;;;;;;;4.9;8.1;;;;;;;-133;58.9;65260;;;;
2022/06/03 20:30:22;;;;;;;4.9;8.1;;;;;;;-133;60.7;65260;;;;
2022/06/03 20:41:23;;;;;;;4.9;7.4;;;;;;;-133;60.7;65260;;;;
2022/06/03 20:52:22;;;;;;;4.9;7.4;;;;;;;-133;61.7;65260;;;;
2022/06/03 21:02:22;;;;;;;4.9;7.4;;;;;;;-133;62.3;65260;;;;
2022/06/03 21:12:56;;;;;;;5.3;8.3;;;;;;;-133;64.2;65260;;;;
2022/06/03 21:22:23;;;;;;;5.3;8.3;;;;;;;-133;65.1;65260;;;;
2022/06/03 21:33:23;;;;;;;5.3;8.3;;;;;;;-133;65.2;65260;;;;
2022/06/03 21:43:22;;;;;;;4.6;9.2;;;;;;;-133;66.4;65260;;;;
2022/06/03 21:53:23;;;;;;;4.6;9.2;;;;;;;-133;66.8;65260;;;;
2022/06/03 22:04:22;;;;;;;4.6;9.2;;;;;;;-133;66.9;65270;;;;
2022/06/03 22:14:22;;;;;;;5.2;7.8;;;;;;;-133;67.1;65270;;;;
2022/06/03 22:24:22;;;;;;;5.2;7.8;;;;;;;-133;67.5;65270;;;;
2022/06/03 22:34:23;;;;;;;5.2;7.8;;;;;;;-133;68.3;65270;;;;
2022/06/03 22:45:23;;;;;;;5.1;9.8;;;;;;;-133;68.4;65260;;;;
2022/06/03 22:55:22;;;;;;;5.1;9.8;;;;;;;-133;69.1;65270;;;;
2022/06/03 23:05:23;;;;;;;4.9;8.6;;;;;;;-133;68.7;65270;;;;
2022/06/03 23:16:23;;;;;;;4.9;8.6;;;;;;;-133;69.2;65270;;;;
2022/06/03 23:27:23;;;;;;;4.9;8.6;;;;;;;-133;68.7;65260;;;;
2022/06/03 23:37:23;;;;;;;6.2;9;;;;;;;-133;68.5;65260;;;;
2022/06/03 23:47:23;;;;;;;6.2;9;;;;;;;-133;69.1;65270;;;;
2022/06/03 23:58:23;;;;;;;6.2;9;;;;;;;-133;70.1;65260;;;;
